Terminal Aerodrome Forecast
Issued by NWS

Home | Current Version | Previous Version | Text Only | Print | Product List | Glossary On
Versions: 1 2 3 4 5 6 7 8 9 10 11 12 13 14 15 16 17 18 19
068
FTPA31 PHFO 261416 AAA
TAFHLI
TAF AMD
PHLI 261416Z 2614/2712 01005KT P6SM SCT025 SCT050
     FM270500 02009KT P6SM FEW035 SCT060=

USA.gov is the U.S. government's official web portal to all federal, state and local government web resources and services.